Time;durP1;ratioP1;P1;durP2;ratioP2;P2;SDS_P1;SDS_P2;PMS_P1;PMS_P2;Temp;Humidity;BMP_temperature;BMP_pressure;BME280_temperature;BME280_humidity;BME280_pressure;Samples;Min_cycle;Max_cycle;Signal;HPM_P1;HPM_P2
2023/04/28 00:00:04;;;;;;;12.63;7.97;;;7.30;99.90;;;;;;5091791;28;20237;-81
2023/04/28 00:02:31;;;;;;;11.23;8.35;;;7.30;99.90;;;;;;5091457;28;20643;-82
2023/04/28 00:04:56;;;;;;;9.75;7.80;;;7.30;99.90;;;;;;5112103;28;20543;-80
2023/04/28 00:07:22;;;;;;;10.57;7.68;;;7.30;99.90;;;;;;5091840;28;20181;-80
2023/04/28 00:09:48;;;;;;;12.48;7.95;;;7.30;99.90;;;;;;5092568;28;20696;-81
2023/04/28 00:12:14;;;;;;;11.88;8.10;;;7.20;99.90;;;;;;5091721;28;20554;-81
2023/04/28 00:14:40;;;;;;;18.60;8.60;;;7.10;99.90;;;;;;5094158;28;20250;-80
2023/04/28 00:17:05;;;;;;;12.35;8.40;;;7.20;99.90;;;;;;5109118;28;20673;-80
2023/04/28 00:19:31;;;;;;;13.48;8.00;;;7.20;99.90;;;;;;5091507;28;20185;-81
2023/04/28 00:21:57;;;;;;;15.18;8.75;;;7.10;99.90;;;;;;5112076;28;20173;-80
2023/04/28 00:24:23;;;;;;;12.93;9.23;;;7.10;99.90;;;;;;5107901;28;20186;-79
2023/04/28 00:26:48;;;;;;;12.48;8.50;;;7.10;99.90;;;;;;5058221;28;20182;-80
2023/04/28 00:29:14;;;;;;;13.05;8.48;;;7.10;99.90;;;;;;5078367;28;20194;-80
2023/04/28 00:31:40;;;;;;;19.00;9.55;;;7.10;99.90;;;;;;5091547;28;20266;-80
2023/04/28 00:34:06;;;;;;;13.23;8.57;;;7.00;99.90;;;;;;5092049;28;20265;-80
2023/04/28 00:36:31;;;;;;;11.50;8.63;;;7.00;99.90;;;;;;5074678;28;20219;-81
2023/04/28 00:38:58;;;;;;;16.48;8.70;;;7.00;99.90;;;;;;5099426;28;20186;-81
2023/04/28 00:41:24;;;;;;;12.95;9.20;;;7.00;99.90;;;;;;5092572;28;20182;-80
2023/04/28 00:43:50;;;;;;;11.90;8.65;;;6.90;99.90;;;;;;5101572;28;20273;-80
2023/04/28 00:46:24;;;;;;;12.15;8.40;;;6.90;99.90;;;;;;5111349;28;20217;-80
2023/04/28 00:48:50;;;;;;;14.00;8.95;;;7.00;99.90;;;;;;5102395;28;20240;-81
2023/04/28 00:51:16;;;;;;;14.40;8.75;;;6.90;99.90;;;;;;5091241;28;20543;-81
2023/04/28 00:53:43;;;;;;;13.45;8.45;;;6.90;99.90;;;;;;5101140;28;20198;-81
2023/04/28 00:56:09;;;;;;;13.85;8.20;;;6.90;99.90;;;;;;5115226;28;20274;-80
2023/04/28 00:58:35;;;;;;;13.70;8.27;;;6.90;99.90;;;;;;5116671;28;20182;-81
2023/04/28 01:01:03;;;;;;;11.82;8.30;;;6.90;99.90;;;;;;5098233;28;20177;-80
2023/04/28 01:03:29;;;;;;;11.40;8.10;;;6.90;99.90;;;;;;5114599;28;20642;-81
2023/04/28 01:05:54;;;;;;;12.43;8.20;;;6.90;99.90;;;;;;5106826;28;20212;-81
2023/04/28 01:08:28;;;;;;;10.25;7.35;;;6.90;99.90;;;;;;5109976;28;20257;-81
2023/04/28 01:10:54;;;;;;;11.13;8.15;;;6.80;99.90;;;;;;5094752;28;20300;-81
2023/04/28 01:13:39;;;;;;;16.00;8.55;;;6.80;99.90;;;;;;5089586;28;20638;-80
2023/04/28 01:16:06;;;;;;;11.98;8.05;;;6.80;99.90;;;;;;5116080;28;20181;-80
2023/04/28 01:18:33;;;;;;;13.85;8.48;;;6.80;99.90;;;;;;5107276;28;20649;-80
2023/04/28 01:20:59;;;;;;;12.80;8.30;;;6.70;99.90;;;;;;5106819;28;20188;-80
2023/04/28 01:23:25;;;;;;;11.45;8.13;;;6.70;99.90;;;;;;5091379;28;20208;-81
2023/04/28 01:25:51;;;;;;;14.32;8.23;;;6.70;99.90;;;;;;5076811;28;20639;-84
2023/04/28 01:28:17;;;;;;;14.10;8.57;;;6.70;99.90;;;;;;5074467;28;20182;-81
2023/04/28 01:30:43;;;;;;;14.45;8.57;;;6.70;99.90;;;;;;5097130;28;20268;-81
2023/04/28 01:33:09;;;;;;;11.43;8.43;;;6.70;99.90;;;;;;5096416;28;20280;-81
2023/04/28 01:35:35;;;;;;;11.82;8.73;;;6.70;99.90;;;;;;5077401;28;20242;-80
2023/04/28 01:38:01;;;;;;;11.07;8.32;;;6.70;99.90;;;;;;5097931;28;20223;-81
2023/04/28 01:40:26;;;;;;;14.43;8.75;;;6.70;99.90;;;;;;5114386;28;20169;-80
2023/04/28 01:42:52;;;;;;;16.73;9.23;;;6.70;99.90;;;;;;5113776;28;20177;-81
2023/04/28 01:45:18;;;;;;;12.95;8.73;;;6.70;99.90;;;;;;5113677;28;20663;-82
2023/04/28 01:47:43;;;;;;;19.27;10.00;;;6.70;99.90;;;;;;5113125;28;20180;-80
2023/04/28 01:50:10;;;;;;;11.85;8.70;;;6.70;99.90;;;;;;5096202;28;20189;-80
2023/04/28 01:52:36;;;;;;;13.18;8.82;;;6.70;99.90;;;;;;5094385;28;20697;-81
2023/04/28 01:55:01;;;;;;;15.55;9.45;;;6.70;99.90;;;;;;5114560;28;20189;-81
2023/04/28 01:57:28;;;;;;;13.80;9.25;;;6.70;99.90;;;;;;5096628;28;20189;-80
2023/04/28 01:59:55;;;;;;;14.73;8.57;;;6.70;99.90;;;;;;5113986;28;20546;-80
2023/04/28 02:02:21;;;;;;;13.68;9.10;;;6.80;99.90;;;;;;5079553;28;20271;-80
2023/04/28 02:04:47;;;;;;;16.10;9.48;;;6.80;99.90;;;;;;5113608;28;20272;-81
2023/04/28 02:07:13;;;;;;;14.80;9.57;;;6.80;99.90;;;;;;5113373;28;20200;-80
2023/04/28 02:09:40;;;;;;;14.65;8.80;;;6.80;99.90;;;;;;5096313;28;20242;-80
2023/04/28 02:12:07;;;;;;;14.40;9.10;;;6.80;99.90;;;;;;5095875;28;20217;-80
2023/04/28 02:14:32;;;;;;;13.32;9.23;;;6.80;99.90;;;;;;5095805;28;20193;-80
2023/04/28 02:16:58;;;;;;;15.73;9.95;;;6.80;99.90;;;;;;5112766;28;20181;-81
2023/04/28 02:19:25;;;;;;;14.77;10.45;;;6.70;99.90;;;;;;5080805;28;20184;-80
2023/04/28 02:21:51;;;;;;;16.30;10.25;;;6.80;99.90;;;;;;5093264;28;20186;-80
2023/04/28 02:24:16;;;;;;;15.18;10.38;;;6.80;99.90;;;;;;5099302;28;20638;-80
2023/04/28 02:26:42;;;;;;;22.42;11.55;;;6.80;99.90;;;;;;5073279;28;21902;-80
2023/04/28 02:29:08;;;;;;;17.77;11.48;;;6.80;99.90;;;;;;5078670;28;20220;-80
2023/04/28 02:31:33;;;;;;;20.67;11.35;;;6.80;99.90;;;;;;5096326;28;20718;-82
2023/04/28 02:33:59;;;;;;;20.52;12.25;;;6.80;99.90;;;;;;5102347;28;21006;-81
2023/04/28 02:36:26;;;;;;;21.40;12.68;;;6.70;99.90;;;;;;5108196;28;20185;-81
2023/04/28 02:38:52;;;;;;;22.15;12.70;;;6.80;99.90;;;;;;5101328;28;20182;-82
2023/04/28 02:41:18;;;;;;;20.50;13.50;;;6.80;99.90;;;;;;5094399;28;20628;-81
2023/04/28 02:43:44;;;;;;;26.48;14.07;;;6.70;99.90;;;;;;5101747;28;20566;-80
2023/04/28 02:46:10;;;;;;;24.23;13.88;;;6.80;99.90;;;;;;5095395;28;20225;-81
2023/04/28 02:48:36;;;;;;;25.75;14.35;;;6.80;99.90;;;;;;5109362;28;20196;-82
2023/04/28 02:51:02;;;;;;;24.05;13.70;;;6.80;99.90;;;;;;5076120;28;20233;-81
2023/04/28 02:53:28;;;;;;;27.38;14.13;;;6.80;99.90;;;;;;5100624;28;20185;-81
2023/04/28 02:55:54;;;;;;;25.33;15.45;;;6.80;99.90;;;;;;5111946;28;20188;-81
2023/04/28 02:58:19;;;;;;;28.77;15.02;;;6.80;99.90;;;;;;5108522;28;20170;-81
2023/04/28 03:00:46;;;;;;;27.80;14.85;;;6.90;99.90;;;;;;5098294;28;20551;-81
2023/04/28 03:03:13;;;;;;;23.08;14.05;;;6.80;99.90;;;;;;5112668;28;20189;-81
2023/04/28 03:05:38;;;;;;;30.15;15.18;;;6.80;99.90;;;;;;5109893;28;20182;-81
2023/04/28 03:08:05;;;;;;;26.30;15.23;;;6.90;99.90;;;;;;5073691;28;20177;-81
2023/04/28 03:10:31;;;;;;;23.48;15.07;;;6.90;99.90;;;;;;5112287;28;20173;-81
2023/04/28 03:12:56;;;;;;;25.00;14.70;;;6.80;99.90;;;;;;5095266;28;20176;-82
2023/04/28 03:15:22;;;;;;;28.00;15.82;;;6.90;99.90;;;;;;5112606;28;20642;-81
2023/04/28 03:17:48;;;;;;;24.02;15.15;;;6.90;99.90;;;;;;5094347;28;20642;-81
2023/04/28 03:20:14;;;;;;;25.33;15.82;;;6.90;99.90;;;;;;5111803;28;20203;-82
2023/04/28 03:22:40;;;;;;;30.38;16.13;;;6.90;99.90;;;;;;5093306;28;20197;-81
2023/04/28 03:25:06;;;;;;;26.95;16.50;;;6.90;99.90;;;;;;5113412;28;20270;-81
2023/04/28 03:27:37;;;;;;;30.65;17.35;;;6.90;99.90;;;;;;5096179;28;20289;-81
2023/04/28 03:30:05;;;;;;;25.25;14.48;;;6.90;99.90;;;;;;5112528;28;20185;-81
2023/04/28 03:32:31;;;;;;;27.48;16.23;;;6.90;99.90;;;;;;5092474;28;20207;-82
2023/04/28 03:34:57;;;;;;;27.23;15.98;;;6.90;99.90;;;;;;5075921;28;20268;-81
2023/04/28 03:37:23;;;;;;;26.13;16.83;;;6.90;99.90;;;;;;5094957;28;20521;-81
2023/04/28 03:39:49;;;;;;;28.38;16.77;;;6.90;99.90;;;;;;5109564;28;20177;-81
2023/04/28 03:42:15;;;;;;;30.38;17.40;;;6.90;99.90;;;;;;5095223;28;20200;-81
2023/04/28 03:45:05;;;;;;;29.38;15.95;;;6.90;99.90;;;;;;5065004;28;20222;-81
2023/04/28 03:47:31;;;;;;;30.13;17.20;;;6.90;99.90;;;;;;5108150;28;20185;-81
2023/04/28 03:49:57;;;;;;;30.20;17.05;;;6.90;99.90;;;;;;5075246;28;20188;-82
2023/04/28 03:52:24;;;;;;;28.52;17.02;;;6.90;99.90;;;;;;5110651;28;20574;-81
2023/04/28 03:54:50;;;;;;;29.20;17.65;;;6.90;99.90;;;;;;5112159;28;20185;-81
2023/04/28 03:57:17;;;;;;;30.85;18.13;;;6.90;99.90;;;;;;5090882;28;20190;-81
2023/04/28 03:59:43;;;;;;;27.70;16.63;;;6.90;99.90;;;;;;5091755;28;20192;-81
2023/04/28 04:02:09;;;;;;;29.80;16.98;;;6.80;99.90;;;;;;5088743;28;20599;-80
2023/04/28 04:04:35;;;;;;;27.38;17.00;;;6.80;99.90;;;;;;5061505;28;20189;-80
2023/04/28 04:07:01;;;;;;;28.77;17.05;;;6.90;99.90;;;;;;5078759;28;20688;-82
2023/04/28 04:09:28;;;;;;;29.35;17.30;;;6.90;99.90;;;;;;5075010;28;20631;-80
2023/04/28 04:11:54;;;;;;;34.15;16.88;;;6.90;99.90;;;;;;5085569;28;20331;-80
2023/04/28 04:14:19;;;;;;;29.25;16.48;;;6.90;99.90;;;;;;5081113;28;20181;-80
2023/04/28 04:16:46;;;;;;;29.00;16.35;;;6.80;99.90;;;;;;5105052;28;20189;-80
2023/04/28 04:19:12;;;;;;;29.50;16.45;;;6.80;99.90;;;;;;5094200;28;20211;-80
2023/04/28 04:21:40;;;;;;;30.10;16.38;;;6.90;99.90;;;;;;5094984;28;20242;-81
2023/04/28 04:24:06;;;;;;;31.63;16.80;;;6.90;99.90;;;;;;5111830;28;20243;-81
2023/04/28 04:26:32;;;;;;;29.05;16.13;;;6.80;99.90;;;;;;5099798;28;20178;-81
2023/04/28 04:28:58;;;;;;;27.88;15.98;;;6.80;99.90;;;;;;5075575;28;20182;-81
2023/04/28 04:31:24;;;;;;;30.05;16.08;;;6.80;99.90;;;;;;5088814;28;20636;-81
2023/04/28 04:33:50;;;;;;;32.10;17.02;;;6.80;99.90;;;;;;5115375;28;20646;-81
2023/04/28 04:36:18;;;;;;;26.98;16.20;;;6.80;99.90;;;;;;5090958;28;20274;-81
2023/04/28 04:38:44;;;;;;;29.90;16.83;;;6.80;99.90;;;;;;5104104;28;20285;-81
2023/04/28 04:41:19;;;;;;;25.98;15.63;;;6.80;99.90;;;;;;5085287;28;20173;-80
2023/04/28 04:43:46;;;;;;;26.90;16.98;;;6.80;99.90;;;;;;5115452;28;20177;-80
2023/04/28 04:46:12;;;;;;;26.05;16.98;;;6.80;99.90;;;;;;5086787;28;20235;-80
2023/04/28 04:48:38;;;;;;;25.42;16.15;;;6.80;99.90;;;;;;5095134;28;20181;-81
2023/04/28 04:51:04;;;;;;;30.65;16.65;;;6.80;99.90;;;;;;5097242;28;20684;-80
2023/04/28 04:53:31;;;;;;;30.42;16.42;;;6.80;99.90;;;;;;5094420;28;20292;-78
2023/04/28 04:55:57;;;;;;;27.80;16.52;;;6.80;99.90;;;;;;5099080;28;20181;-79
2023/04/28 04:58:24;;;;;;;26.67;16.70;;;6.80;99.90;;;;;;5113313;28;20327;-78
2023/04/28 05:01:17;;;;;;;30.33;16.10;;;6.80;99.90;;;;;;5111191;28;20280;-78
2023/04/28 05:03:42;;;;;;;35.17;17.92;;;6.80;99.90;;;;;;5113999;28;20266;-78
2023/04/28 05:06:09;;;;;;;32.33;17.13;;;6.80;99.90;;;;;;5096606;28;20191;-79
2023/04/28 05:08:42;;;;;;;27.25;16.00;;;6.80;99.90;;;;;;5114472;28;20199;-79
2023/04/28 05:11:08;;;;;;;31.65;15.43;;;6.80;99.90;;;;;;5097848;27;20312;-79
2023/04/28 05:13:33;;;;;;;26.45;16.48;;;6.80;99.90;;;;;;5134871;27;20183;-79
2023/04/28 05:16:01;;;;;;;29.17;16.52;;;6.80;99.90;;;;;;5101885;28;21301;-79
2023/04/28 05:18:57;;;;;;;24.85;14.85;;;6.80;99.90;;;;;;5088353;28;20535;-79
2023/04/28 05:21:23;;;;;;;28.00;15.18;;;6.90;99.90;;;;;;5095135;28;20192;-79
2023/04/28 05:23:48;;;;;;;20.67;13.40;;;6.90;99.90;;;;;;5093402;28;20192;-78
2023/04/28 05:26:15;;;;;;;25.63;15.00;;;6.80;99.90;;;;;;5113623;28;20187;-79
2023/04/28 05:28:42;;;;;;;26.77;15.35;;;6.90;99.90;;;;;;5114387;27;20181;-79
2023/04/28 05:31:08;;;;;;;21.90;13.77;;;6.90;99.90;;;;;;5113894;28;20312;-79
2023/04/28 05:33:33;;;;;;;24.02;14.45;;;6.90;99.90;;;;;;5113692;28;20268;-79
2023/04/28 05:35:59;;;;;;;23.60;14.15;;;6.90;99.90;;;;;;5091435;28;20268;-79
2023/04/28 05:38:26;;;;;;;22.42;14.02;;;6.90;99.90;;;;;;5099997;28;20247;-79
2023/04/28 05:40:59;;;;;;;23.45;13.77;;;6.90;99.90;;;;;;5108235;28;20182;-80
2023/04/28 05:43:25;;;;;;;24.65;14.85;;;6.90;99.90;;;;;;5096891;28;20177;-79
2023/04/28 05:45:52;;;;;;;24.85;14.10;;;7.00;99.90;;;;;;5118338;27;20327;-80
2023/04/28 05:48:18;;;;;;;28.92;14.20;;;7.00;99.90;;;;;;5135596;27;20705;-79
2023/04/28 05:50:45;;;;;;;23.98;13.80;;;7.00;99.90;;;;;;5127157;27;20178;-79
2023/04/28 05:53:11;;;;;;;23.13;14.23;;;7.00;99.90;;;;;;5114001;28;20522;-79
2023/04/28 05:55:37;;;;;;;23.27;14.60;;;7.00;99.90;;;;;;5112796;28;20234;-80
2023/04/28 05:58:03;;;;;;;20.50;14.18;;;7.00;99.90;;;;;;5105269;28;20182;-80
2023/04/28 06:00:30;;;;;;;23.67;13.52;;;7.10;99.90;;;;;;5093004;28;20182;-81
2023/04/28 06:02:58;;;;;;;23.02;13.07;;;7.10;99.90;;;;;;5085429;28;20205;-81
2023/04/28 06:05:24;;;;;;;27.88;14.05;;;7.10;99.90;;;;;;5095681;28;20220;-81
2023/04/28 06:07:54;;;;;;;24.63;13.27;;;7.10;99.90;;;;;;5112740;28;20654;-80
2023/04/28 06:10:22;;;;;;;28.20;13.70;;;7.20;99.90;;;;;;5094061;28;20181;-81
2023/04/28 06:12:47;;;;;;;20.83;12.88;;;7.20;99.90;;;;;;5112917;28;20205;-81
2023/04/28 06:15:14;;;;;;;20.40;13.23;;;7.20;99.90;;;;;;5111444;28;20227;-81
2023/04/28 06:17:41;;;;;;;20.48;12.93;;;7.20;99.90;;;;;;5112234;28;20185;-83
2023/04/28 06:20:09;;;;;;;20.73;12.35;;;7.20;99.90;;;;;;5113907;27;20253;-81
2023/04/28 06:22:36;;;;;;;20.65;12.93;;;7.30;99.90;;;;;;5080673;28;20181;-82
2023/04/28 06:25:02;;;;;;;21.45;12.88;;;7.30;99.90;;;;;;5079482;28;20208;-81
2023/04/28 06:27:35;;;;;;;20.63;12.40;;;7.30;99.90;;;;;;5095388;28;20956;-80
2023/04/28 06:30:01;;;;;;;18.85;12.90;;;7.30;99.90;;;;;;5113144;28;20264;-81
2023/04/28 06:32:26;;;;;;;21.30;12.85;;;7.30;99.90;;;;;;5079046;28;20239;-82
2023/04/28 06:34:52;;;;;;;21.33;12.85;;;7.30;99.90;;;;;;5112296;28;20233;-83
2023/04/28 06:37:18;;;;;;;21.48;12.98;;;7.30;99.90;;;;;;5106641;27;20192;-80
2023/04/28 06:39:44;;;;;;;23.27;13.80;;;7.30;99.90;;;;;;5111655;27;20238;-80
2023/04/28 06:42:10;;;;;;;21.25;13.10;;;7.40;99.90;;;;;;5110774;28;20275;-80
2023/04/28 06:44:40;;;;;;;20.48;13.60;;;7.40;99.90;;;;;;5111798;28;20173;-79
2023/04/28 06:47:06;;;;;;;22.98;14.15;;;7.40;99.90;;;;;;5113418;28;20274;-79
2023/04/28 06:49:32;;;;;;;21.42;13.23;;;7.40;99.90;;;;;;5111160;28;20277;-80
2023/04/28 06:51:59;;;;;;;25.50;13.00;;;7.40;99.90;;;;;;5111328;28;20670;-79
2023/04/28 06:54:29;;;;;;;23.23;12.98;;;7.50;99.90;;;;;;5112870;27;20186;-80
2023/04/28 06:56:54;;;;;;;21.70;13.40;;;7.50;99.90;;;;;;5075176;28;20227;-81
2023/04/28 06:59:23;;;;;;;20.10;13.40;;;7.50;99.90;;;;;;5097575;28;20185;-79
2023/04/28 07:01:49;;;;;;;23.90;12.95;;;7.60;99.90;;;;;;5112192;28;20669;-79
2023/04/28 07:04:14;;;;;;;19.90;12.73;;;7.60;99.90;;;;;;5111255;28;20188;-79
2023/04/28 07:06:40;;;;;;;23.73;12.75;;;7.70;99.90;;;;;;5110261;28;20189;-80
2023/04/28 07:09:06;;;;;;;22.55;12.88;;;7.60;99.90;;;;;;5112652;28;20249;-79
2023/04/28 07:11:32;;;;;;;21.30;13.07;;;7.70;99.90;;;;;;5099586;28;20225;-78
2023/04/28 07:13:58;;;;;;;21.42;13.18;;;7.80;99.90;;;;;;5100434;28;20180;-82
2023/04/28 07:16:25;;;;;;;21.83;13.38;;;7.80;99.90;;;;;;5112255;28;20275;-79
2023/04/28 07:18:50;;;;;;;24.65;13.55;;;7.80;99.90;;;;;;5113023;28;20173;-79
2023/04/28 07:21:16;;;;;;;26.65;13.65;;;7.90;99.90;;;;;;5110031;28;20184;-80
2023/04/28 07:23:42;;;;;;;20.77;13.75;;;7.90;99.90;;;;;;5083327;28;20634;-81
2023/04/28 07:26:08;;;;;;;20.98;14.07;;;8.00;99.90;;;;;;5093060;28;20696;-79
2023/04/28 07:28:34;;;;;;;21.23;13.77;;;8.10;99.90;;;;;;5075850;28;20634;-82
2023/04/28 07:31:00;;;;;;;19.95;12.88;;;8.10;99.90;;;;;;5112817;28;20174;-79
2023/04/28 07:33:26;;;;;;;22.23;13.07;;;8.20;99.90;;;;;;5108900;28;20184;-81
2023/04/28 07:35:52;;;;;;;19.77;12.85;;;8.20;99.90;;;;;;5111870;28;20183;-81
2023/04/28 07:38:19;;;;;;;20.40;13.30;;;8.20;99.90;;;;;;5111506;28;20490;-80
2023/04/28 07:40:45;;;;;;;27.45;13.18;;;8.30;99.90;;;;;;5113104;28;20253;-81
2023/04/28 07:43:11;;;;;;;19.27;12.23;;;8.30;99.90;;;;;;5092193;28;20189;-80
2023/04/28 07:45:39;;;;;;;19.95;12.90;;;8.30;99.90;;;;;;5119355;28;20224;-81
2023/04/28 07:48:05;;;;;;;19.15;12.43;;;8.30;99.90;;;;;;5132378;28;20249;-81
2023/04/28 07:50:31;;;;;;;19.98;13.27;;;8.30;99.90;;;;;;5123633;27;20178;-81
2023/04/28 07:52:57;;;;;;;21.98;13.45;;;8.30;99.90;;;;;;5112718;28;20258;-82
2023/04/28 07:55:23;;;;;;;21.52;13.30;;;8.30;99.90;;;;;;5109361;28;20209;-81
2023/04/28 07:57:49;;;;;;;19.80;13.27;;;8.30;99.90;;;;;;5112878;28;20204;-80
2023/04/28 08:00:16;;;;;;;19.80;13.30;;;8.40;99.90;;;;;;5108195;28;20641;-80
2023/04/28 08:02:42;;;;;;;24.35;13.52;;;8.40;99.90;;;;;;5096640;28;20241;-82
2023/04/28 08:05:08;;;;;;;23.20;13.60;;;8.40;99.90;;;;;;5104330;28;20188;-83
2023/04/28 08:07:35;;;;;;;23.60;13.85;;;8.40;99.90;;;;;;5122268;27;20181;-81
2023/04/28 08:10:02;;;;;;;26.92;13.82;;;8.50;99.90;;;;;;5115917;28;20184;-81
2023/04/28 08:12:28;;;;;;;20.52;13.18;;;8.50;99.90;;;;;;5111207;28;20299;-82
2023/04/28 08:14:55;;;;;;;20.98;13.82;;;8.50;99.90;;;;;;5114770;28;20767;-82
2023/04/28 08:17:21;;;;;;;20.83;13.57;;;8.50;99.90;;;;;;5114606;28;20181;-81
2023/04/28 08:19:47;;;;;;;22.92;13.25;;;8.60;99.90;;;;;;5115005;28;20181;-80
2023/04/28 08:22:13;;;;;;;24.58;13.90;;;8.60;99.90;;;;;;5113245;28;20203;-80
2023/04/28 08:24:39;;;;;;;23.77;14.02;;;8.60;99.90;;;;;;5114795;28;20188;-81
2023/04/28 08:27:05;;;;;;;24.88;13.57;;;8.60;99.90;;;;;;5090336;28;20181;-81
2023/04/28 08:29:31;;;;;;;25.63;14.18;;;8.60;99.90;;;;;;5117844;27;20197;-81
2023/04/28 08:32:06;;;;;;;20.67;13.45;;;8.70;99.90;;;;;;5100490;28;20341;-80
2023/04/28 08:34:33;;;;;;;20.02;14.48;;;8.70;99.90;;;;;;5062282;28;20182;-80
2023/04/28 08:36:59;;;;;;;24.83;14.98;;;8.80;99.90;;;;;;5109505;28;20181;-79
2023/04/28 08:39:25;;;;;;;19.38;13.15;;;8.80;99.90;;;;;;5110526;28;20254;-84
2023/04/28 08:41:52;;;;;;;24.42;14.35;;;8.80;99.90;;;;;;5094856;28;20213;-79
2023/04/28 08:44:18;;;;;;;21.30;13.60;;;8.80;99.90;;;;;;5096056;28;20215;-80
2023/04/28 08:46:45;;;;;;;21.70;13.38;;;8.80;99.90;;;;;;5070450;28;20229;-79
2023/04/28 08:49:15;;;;;;;22.23;14.07;;;8.80;99.90;;;;;;5109993;28;20210;-83
2023/04/28 08:51:46;;;;;;;23.75;14.18;;;8.90;99.90;;;;;;5113915;28;20224;-80
2023/04/28 08:54:15;;;;;;;23.30;13.75;;;8.90;99.90;;;;;;5116263;28;20193;-80
2023/04/28 08:56:44;;;;;;;25.17;14.45;;;8.90;99.90;;;;;;5103537;28;20182;-80
2023/04/28 08:59:14;;;;;;;21.73;13.90;;;9.00;99.90;;;;;;5100846;28;20256;-80
2023/04/28 09:01:40;;;;;;;23.52;14.68;;;9.00;99.90;;;;;;5108863;28;20266;-82
2023/04/28 09:04:06;;;;;;;23.13;14.45;;;9.00;99.90;;;;;;5093086;28;20608;-81
2023/04/28 09:06:36;;;;;;;21.08;14.10;;;9.00;99.90;;;;;;5113333;28;20173;-80
2023/04/28 09:09:29;;;;;;;24.65;14.27;;;9.00;99.90;;;;;;5111831;28;20216;-82
2023/04/28 09:11:59;;;;;;;24.17;14.75;;;9.00;99.90;;;;;;5109400;28;20282;-80
2023/04/28 09:14:33;;;;;;;23.85;15.00;;;9.10;99.90;;;;;;5110877;28;20192;-79
2023/04/28 09:17:00;;;;;;;27.83;15.93;;;9.10;99.90;;;;;;5108517;28;20329;-79
2023/04/28 09:19:36;;;;;;;21.42;14.18;;;9.20;99.90;;;;;;5095524;28;21070;-80
2023/04/28 09:22:04;;;;;;;20.80;14.02;;;9.20;99.90;;;;;;5108952;28;20238;-80
2023/04/28 09:24:39;;;;;;;22.63;13.75;;;9.30;99.90;;;;;;5095343;28;20557;-79
2023/04/28 09:27:09;;;;;;;22.67;14.07;;;9.40;99.90;;;;;;5112491;28;20177;-80
2023/04/28 09:29:36;;;;;;;23.27;14.63;;;9.50;99.90;;;;;;5112009;28;20213;-80
2023/04/28 09:32:18;;;;;;;21.90;13.35;;;9.50;99.90;;;;;;5114113;28;20216;-82
2023/04/28 09:34:45;;;;;;;21.58;13.00;;;9.60;99.90;;;;;;5111182;28;20277;-80
2023/04/28 09:37:15;;;;;;;18.95;14.05;;;9.60;99.90;;;;;;5111916;28;20605;-80
2023/04/28 09:39:45;;;;;;;21.58;13.50;;;9.70;99.90;;;;;;5114607;28;20256;-81
2023/04/28 09:42:29;;;;;;;22.70;13.65;;;9.80;99.90;;;;;;5113430;28;20187;-80
2023/04/28 09:44:56;;;;;;;19.08;13.70;;;9.90;99.90;;;;;;5099740;28;20184;-86
2023/04/28 09:47:23;;;;;;;23.50;14.13;;;9.90;99.90;;;;;;5110495;28;20647;-83
2023/04/28 09:49:56;;;;;;;20.77;13.43;;;10.00;99.90;;;;;;5114318;28;20215;-80
2023/04/28 09:52:23;;;;;;;20.45;13.73;;;10.20;99.90;;;;;;5115440;28;20212;-82
2023/04/28 09:54:50;;;;;;;19.58;13.30;;;10.40;99.90;;;;;;5109221;28;20186;-81
2023/04/28 09:57:17;;;;;;;21.02;13.00;;;10.60;99.90;;;;;;5111586;28;20700;-78
2023/04/28 09:59:50;;;;;;;22.65;13.43;;;10.80;99.90;;;;;;5112954;28;20189;-78
2023/04/28 10:02:19;;;;;;;18.63;12.95;;;11.10;99.90;;;;;;5112569;28;20188;-78
2023/04/28 10:04:50;;;;;;;20.30;13.23;;;11.40;99.90;;;;;;5112914;28;20166;-78
2023/04/28 10:07:18;;;;;;;26.17;13.45;;;11.60;99.90;;;;;;5113026;28;20219;-82
2023/04/28 10:09:51;;;;;;;19.42;13.15;;;11.80;99.90;;;;;;5096268;28;20174;-79
2023/04/28 10:12:18;;;;;;;18.45;12.60;;;11.90;99.90;;;;;;5097539;28;20296;-79
2023/04/28 10:14:44;;;;;;;21.92;13.50;;;11.90;99.90;;;;;;5094084;28;20178;-79
2023/04/28 10:17:12;;;;;;;23.65;13.77;;;11.90;99.90;;;;;;5096421;28;20281;-79
2023/04/28 10:19:40;;;;;;;22.02;13.10;;;11.90;99.90;;;;;;5099623;28;20635;-80
2023/04/28 10:22:08;;;;;;;20.35;12.65;;;11.90;99.90;;;;;;5076910;28;20262;-80
2023/04/28 10:25:04;;;;;;;19.10;13.50;;;12.00;99.90;;;;;;5106764;28;20173;-79
2023/04/28 10:27:32;;;;;;;21.35;13.20;;;11.90;99.90;;;;;;5111006;27;20205;-79
2023/04/28 10:30:17;;;;;;;17.48;13.38;;;12.00;99.90;;;;;;5114368;28;20221;-79
2023/04/28 10:32:44;;;;;;;16.60;12.77;;;11.90;99.90;;;;;;5111607;28;20213;-79
2023/04/28 10:35:41;;;;;;;24.85;13.88;;;12.00;99.90;;;;;;5106838;28;20178;-81
2023/04/28 10:38:12;;;;;;;20.60;13.13;;;12.00;99.90;;;;;;5096583;28;20173;-79
2023/04/28 10:40:40;;;;;;;19.40;13.40;;;12.20;99.90;;;;;;5106695;28;20261;-79
2023/04/28 10:43:08;;;;;;;23.15;13.38;;;12.40;99.90;;;;;;5106334;28;20596;-80
2023/04/28 10:45:53;;;;;;;20.88;14.13;;;12.50;99.90;;;;;;5109735;28;20226;-80
2023/04/28 10:48:19;;;;;;;18.90;13.80;;;12.60;99.90;;;;;;5111464;28;20187;-78
2023/04/28 10:51:03;;;;;;;20.15;13.27;;;12.60;99.90;;;;;;5108135;28;20260;-78
2023/04/28 10:53:44;;;;;;;20.80;12.93;;;12.70;99.90;;;;;;5109916;28;20608;-78
2023/04/28 10:56:26;;;;;;;18.45;13.80;;;12.70;99.90;;;;;;5112558;28;20184;-78
2023/04/28 10:58:59;;;;;;;19.02;13.30;;;12.80;99.90;;;;;;5111348;28;20181;-79
2023/04/28 11:01:27;;;;;;;20.00;13.63;;;12.70;99.90;;;;;;5100864;28;20250;-77
2023/04/28 11:04:02;;;;;;;17.90;13.10;;;12.80;99.90;;;;;;5111833;28;20574;-78
2023/04/28 11:06:39;;;;;;;21.63;14.00;;;12.70;99.90;;;;;;5110856;28;20272;-77
2023/04/28 11:09:14;;;;;;;24.00;14.32;;;12.70;99.90;;;;;;5111941;28;20203;-78
2023/04/28 11:12:09;;;;;;;19.58;13.82;;;12.70;99.90;;;;;;5106092;28;20224;-78
2023/04/28 11:14:36;;;;;;;19.27;14.02;;;12.70;99.90;;;;;;5103296;28;20186;-77
2023/04/28 11:17:12;;;;;;;22.08;14.88;;;12.60;99.90;;;;;;5107571;28;20288;-81
2023/04/28 11:19:45;;;;;;;28.02;15.50;;;12.60;99.90;;;;;;5109506;28;20176;-78
2023/04/28 11:22:15;;;;;;;21.63;14.55;;;12.60;99.90;;;;;;5106683;28;20181;-78
2023/04/28 11:24:53;;;;;;;23.73;15.32;;;12.50;99.90;;;;;;5111159;28;20191;-79
2023/04/28 11:27:26;;;;;;;21.75;15.00;;;12.50;99.90;;;;;;5109974;28;20181;-80
2023/04/28 11:29:52;;;;;;;22.05;15.15;;;12.40;99.90;;;;;;5112450;28;20272;-79
2023/04/28 11:32:32;;;;;;;20.80;15.55;;;12.40;99.90;;;;;;5109266;28;20304;-78
2023/04/28 11:35:03;;;;;;;20.23;15.15;;;12.40;99.90;;;;;;5113073;28;20199;-78
2023/04/28 11:37:29;;;;;;;30.80;15.60;;;12.30;99.90;;;;;;5094258;28;20269;-79
2023/04/28 11:39:56;;;;;;;21.80;16.60;;;12.30;99.90;;;;;;5111032;28;20564;-79
2023/04/28 11:42:24;;;;;;;28.52;16.65;;;12.30;99.90;;;;;;5110158;28;20196;-79
2023/04/28 11:44:52;;;;;;;23.42;17.35;;;12.30;99.90;;;;;;5112187;28;20617;-80
2023/04/28 11:47:34;;;;;;;23.83;16.10;;;12.30;99.90;;;;;;5110235;28;20228;-78
2023/04/28 11:50:00;;;;;;;22.13;16.17;;;12.30;99.90;;;;;;5112817;28;20195;-78
2023/04/28 11:52:26;;;;;;;22.02;15.98;;;12.30;99.90;;;;;;5109035;28;20248;-79
2023/04/28 11:54:56;;;;;;;23.30;16.40;;;12.30;99.90;;;;;;5112574;28;20356;-79
2023/04/28 11:57:22;;;;;;;23.45;16.55;;;12.30;99.90;;;;;;5076712;28;20178;-78
2023/04/28 11:59:49;;;;;;;25.35;17.02;;;12.30;99.90;;;;;;5074556;28;20268;-78
2023/04/28 12:02:16;;;;;;;25.75;17.67;;;12.40;99.90;;;;;;5108775;28;20181;-78
2023/04/28 12:04:43;;;;;;;24.33;17.73;;;12.40;99.90;;;;;;5109901;28;20273;-78
2023/04/28 12:07:12;;;;;;;28.70;16.92;;;12.50;99.90;;;;;;5094931;28;20525;-78
2023/04/28 12:10:17;;;;;;;23.33;16.77;;;12.50;99.90;;;;;;5092861;28;20261;-77
2023/04/28 12:12:44;;;;;;;24.30;17.23;;;12.50;99.90;;;;;;5099336;28;20228;-77
2023/04/28 12:15:10;;;;;;;24.48;15.82;;;12.50;99.90;;;;;;5110305;28;20180;-83
2023/04/28 12:17:38;;;;;;;21.90;15.57;;;12.50;99.90;;;;;;5112346;28;20203;-77
2023/04/28 12:20:07;;;;;;;20.50;15.73;;;12.50;99.90;;;;;;5082630;28;20579;-78
2023/04/28 12:22:49;;;;;;;23.90;16.67;;;12.60;99.90;;;;;;5091651;28;20213;-80
2023/04/28 12:25:18;;;;;;;23.95;15.98;;;12.60;99.90;;;;;;5110788;28;20265;-80
2023/04/28 12:28:06;;;;;;;24.20;15.43;;;12.60;99.90;;;;;;5111634;28;20185;-78
2023/04/28 12:30:42;;;;;;;27.88;15.82;;;12.60;99.90;;;;;;5108971;28;20178;-80
2023/04/28 12:33:25;;;;;;;20.98;15.27;;;12.60;99.90;;;;;;5090662;28;20220;-79
2023/04/28 12:35:55;;;;;;;22.08;15.25;;;12.60;99.90;;;;;;5106283;28;20182;-79
2023/04/28 12:38:21;;;;;;;20.30;15.65;;;12.60;99.90;;;;;;5092549;28;20209;-79
2023/04/28 12:40:47;;;;;;;24.88;16.25;;;12.60;99.90;;;;;;5105158;28;20195;-79